Time;durP1;ratioP1;P1;durP2;ratioP2;P2;SDS_P1;SDS_P2;PMS_P1;PMS_P2;Temp;Humidity;BMP_temperature;BMP_pressure;BME280_temperature;BME280_humidity;BME280_pressure;Samples;Min_cycle;Max_cycle;Signal;HPM_P1;HPM_P2
2022/06/11 00:01:02;;;;;;;;;;;;;;;-140.72;100.00;52459.84;6282471;22;19951;-68
2022/06/11 00:03:28;;;;;;;;;;;;;;;-140.72;100.00;52512.59;6285803;22;20257;-68
2022/06/11 00:05:53;;;;;;;;;;;;;;;-140.72;100.00;52459.84;6288635;22;19938;-68
2022/06/11 00:08:20;;;;;;;;;;;;;;;-140.72;100.00;52522.75;6289027;22;19911;-67
2022/06/11 00:10:45;;;;;;;;;;;;;;;-140.72;100.00;52480.16;6289323;22;19911;-68
2022/06/11 00:13:11;;;;;;;;;;;;;;;-140.72;100.00;52494.34;6288538;22;19922;-68
2022/06/11 00:15:36;;;;;;;;;;;;;;;-140.72;100.00;52486.22;6288463;22;19911;-67
2022/06/11 00:18:02;;;;;;;;;;;;;;;-140.72;100.00;52482.16;6261741;22;19919;-68
2022/06/11 00:20:28;;;;;;;;;;;;;;;-140.72;100.00;52496.38;6288469;22;19986;-67
2022/06/11 00:22:53;;;;;;;;;;;;;;;-140.72;100.00;52474.06;6287820;22;19934;-68
2022/06/11 00:25:20;;;;;;;;;;;;;;;-140.72;100.00;52465.94;6288852;22;19911;-68
2022/06/11 00:27:45;;;;;;;;;;;;;;;-140.72;100.00;52492.31;6260533;22;19911;-67
2022/06/11 00:30:11;;;;;;;;;;;;;;;-140.72;100.00;52532.91;6288470;22;19915;-68
2022/06/11 00:32:37;;;;;;;;;;;;;;;-140.72;100.00;52482.16;6289202;22;19911;-68
2022/06/11 00:35:03;;;;;;;;;;;;;;;-140.72;100.00;52492.31;6287637;22;19939;-68
2022/06/11 00:37:28;;;;;;;;;;;;;;;-140.72;100.00;52520.72;6288533;22;19911;-68
2022/06/11 00:39:54;;;;;;;;;;;;;;;-140.72;100.00;52524.78;6289531;22;19911;-68
2022/06/11 00:42:22;;;;;;;;;;;;;;;-140.72;100.00;52496.38;6262575;22;19911;-68
2022/06/11 00:44:47;;;;;;;;;;;;;;;-140.72;100.00;52492.31;6289681;22;19911;-68
2022/06/11 00:47:13;;;;;;;;;;;;;;;-140.72;100.00;52524.78;6288091;22;19957;-67
2022/06/11 00:49:40;;;;;;;;;;;;;;;-140.72;100.00;52482.16;6289006;22;19986;-67
2022/06/11 00:52:08;;;;;;;;;;;;;;;-140.72;100.00;52476.09;6287336;22;19911;-67
2022/06/11 00:54:34;;;;;;;;;;;;;;;-140.72;100.00;52498.41;6261544;22;19915;-67
2022/06/11 00:57:00;;;;;;;;;;;;;;;-140.72;100.00;52496.38;6288551;22;19922;-67
2022/06/11 00:59:29;;;;;;;;;;;;;;;-140.72;100.00;52508.56;6262302;22;19922;-67
2022/06/11 01:01:55;;;;;;;;;;;;;;;-140.72;100.00;52496.38;6288573;22;19911;-67
2022/06/11 01:04:29;;;;;;;;;;;;;;;-140.72;100.00;52488.25;6260550;22;19911;-67
2022/06/11 01:06:59;;;;;;;;;;;;;;;-140.72;100.00;52490.28;6288161;22;19915;-67
2022/06/11 01:09:30;;;;;;;;;;;;;;;-140.72;100.00;52512.59;6289667;22;19919;-68
2022/06/11 01:11:56;;;;;;;;;;;;;;;-140.72;100.00;52543.03;6262836;22;19911;-67
2022/06/11 01:14:39;;;;;;;;;;;;;;;-140.72;100.00;52482.16;6292257;22;19922;-68
2022/06/11 01:17:10;;;;;;;;;;;;;;;-140.72;100.00;52476.09;6291000;22;19923;-67
2022/06/11 01:19:52;;;;;;;;;;;;;;;-140.72;100.00;52504.50;6264159;22;20094;-68
2022/06/11 01:22:34;;;;;;;;;;;;;;;-140.72;100.00;52510.59;6291040;22;20297;-67
2022/06/11 01:25:33;;;;;;;;;;;;;;;-140.72;100.00;52526.81;6291897;22;19919;-67
2022/06/11 01:28:14;;;;;;;;;;;;;;;-140.72;100.00;52500.44;6222776;22;20300;-67
2022/06/11 01:30:39;;;;;;;;;;;;;;;-140.72;100.00;52508.56;6292056;22;19911;-67
2022/06/11 01:33:13;;;;;;;;;;;;;;;-140.72;100.00;52484.19;6263756;22;19912;-67
2022/06/11 01:36:00;;;;;;;;;;;;;;;-140.72;100.00;52534.94;6292063;22;19939;-67
2022/06/11 01:38:25;;;;;;;;;;;;;;;-140.72;100.00;52510.59;6266156;22;20006;-67
2022/06/11 01:41:16;;;;;;;;;;;;;;;-140.72;100.00;52467.97;6292895;22;19959;-68
2022/06/11 01:43:44;;;;;;;;;;;;;;;-140.72;100.00;52526.81;6264436;22;19953;-68
2022/06/11 01:46:30;;;;;;;;;;;;;;;-140.72;100.00;52500.44;6292424;22;19911;-67
2022/06/11 01:49:07;;;;;;;;;;;;;;;-140.72;100.00;52522.75;6264146;22;19959;-67
2022/06/11 01:51:44;;;;;;;;;;;;;;;-140.72;100.00;52506.53;6292210;22;19955;-67
2022/06/11 01:54:09;;;;;;;;;;;;;;;-140.72;100.00;52506.53;6264737;22;19922;-67
2022/06/11 01:56:43;;;;;;;;;;;;;;;-140.72;100.00;52476.09;6291493;22;19915;-67
2022/06/11 01:59:09;;;;;;;;;;;;;;;-140.72;100.00;52534.94;6263982;22;19994;-68
2022/06/11 02:01:42;;;;;;;;;;;;;;;-140.72;100.00;52520.72;6291617;22;20329;-68
2022/06/11 02:04:14;;;;;;;;;;;;;;;-140.72;100.00;52476.09;6291006;22;19918;-67
2022/06/11 02:06:46;;;;;;;;;;;;;;;-140.72;100.00;52486.22;6263045;22;19955;-67
2022/06/11 02:09:30;;;;;;;;;;;;;;;-140.72;100.00;52536.97;6262082;22;19911;-68
2022/06/11 02:12:00;;;;;;;;;;;;;;;-140.72;100.00;52532.91;6289700;22;19918;-67
2022/06/11 02:14:39;;;;;;;;;;;;;;;-140.72;100.00;52492.31;6289871;22;19911;-67
2022/06/11 02:17:16;;;;;;;;;;;;;;;-140.72;100.00;52516.66;6290383;22;19976;-67
2022/06/11 02:19:53;;;;;;;;;;;;;;;-140.72;100.00;52506.53;6290721;22;19938;-67
2022/06/11 02:22:21;;;;;;;;;;;;;;;-140.72;100.00;52508.56;6289041;22;19922;-68
2022/06/11 02:24:49;;;;;;;;;;;;;;;-140.72;100.00;52480.16;6289861;22;19933;-67
2022/06/11 02:27:17;;;;;;;;;;;;;;;-140.72;100.00;52541.03;6290830;22;19912;-67
2022/06/11 02:29:43;;;;;;;;;;;;;;;-140.72;100.00;52528.84;6290348;22;19911;-67
2022/06/11 02:32:11;;;;;;;;;;;;;;;-140.72;100.00;52534.94;6264935;22;19959;-67
2022/06/11 02:34:41;;;;;;;;;;;;;;;-140.72;100.00;52528.84;6289834;22;19959;-67
2022/06/11 02:37:16;;;;;;;;;;;;;;;-140.72;100.00;52484.19;6288589;22;19911;-67
2022/06/11 02:39:42;;;;;;;;;;;;;;;-140.72;100.00;52545.06;6289546;22;19934;-68
2022/06/11 02:42:09;;;;;;;;;;;;;;;-140.72;100.00;52526.81;6291835;22;19911;-68
2022/06/11 02:44:35;;;;;;;;;;;;;;;-140.72;100.00;52488.25;6262510;22;19965;-68
2022/06/11 02:47:01;;;;;;;;;;;;;;;-140.72;100.00;52577.53;6262950;22;20298;-67
2022/06/11 02:49:27;;;;;;;;;;;;;;;-140.72;100.00;52518.69;6290303;22;19919;-68
2022/06/11 02:51:54;;;;;;;;;;;;;;;-140.72;100.00;52492.31;6264155;22;20356;-67
2022/06/11 02:54:21;;;;;;;;;;;;;;;-140.72;100.00;52549.13;6263723;22;19965;-68
2022/06/11 02:56:47;;;;;;;;;;;;;;;-140.72;100.00;52520.72;6289940;22;19915;-67
2022/06/11 02:59:12;;;;;;;;;;;;;;;-140.72;100.00;52545.06;6291360;22;19930;-67
2022/06/11 03:01:38;;;;;;;;;;;;;;;-140.72;100.00;52514.63;6291067;22;19911;-67
2022/06/11 03:04:03;;;;;;;;;;;;;;;-140.72;100.00;52532.91;6290767;22;19912;-67
2022/06/11 03:06:29;;;;;;;;;;;;;;;-140.72;100.00;52528.84;6290554;22;20309;-68
2022/06/11 03:08:55;;;;;;;;;;;;;;;-140.72;100.00;52536.97;6290787;22;19915;-67
2022/06/11 03:11:21;;;;;;;;;;;;;;;-140.72;100.00;52516.66;6264762;22;19922;-67
2022/06/11 03:13:46;;;;;;;;;;;;;;;-140.72;100.00;52498.41;6290444;22;19911;-68
2022/06/11 03:16:12;;;;;;;;;;;;;;;-140.72;100.00;52543.03;6289380;22;19990;-68
2022/06/11 03:18:38;;;;;;;;;;;;;;;-140.72;100.00;52508.56;6261800;22;19918;-68
2022/06/11 03:21:03;;;;;;;;;;;;;;;-140.72;100.00;52545.06;6290813;22;19918;-68
2022/06/11 03:23:29;;;;;;;;;;;;;;;-140.72;100.00;52530.88;6290845;22;19911;-67
2022/06/11 03:25:55;;;;;;;;;;;;;;;-140.72;100.00;52561.31;6265161;22;19935;-68
2022/06/11 03:28:23;;;;;;;;;;;;;;;-140.72;100.00;52524.78;6290419;22;19922;-68
2022/06/11 03:30:48;;;;;;;;;;;;;;;-140.72;100.00;52526.81;6266070;22;19919;-68
2022/06/11 03:33:14;;;;;;;;;;;;;;;-140.72;100.00;52496.38;6292864;22;19950;-68
2022/06/11 03:35:39;;;;;;;;;;;;;;;-140.72;100.00;52528.84;6291619;22;19945;-67
2022/06/11 03:38:07;;;;;;;;;;;;;;;-140.72;100.00;52549.13;6290479;22;19919;-68
2022/06/11 03:40:33;;;;;;;;;;;;;;;-140.72;100.00;52532.91;6262757;22;19911;-68
2022/06/11 03:42:58;;;;;;;;;;;;;;;-140.72;100.00;52530.88;6290203;22;19912;-68
2022/06/11 03:45:23;;;;;;;;;;;;;;;-140.72;100.00;52516.66;6262790;22;19915;-68
2022/06/11 03:47:49;;;;;;;;;;;;;;;-140.72;100.00;52512.59;6262856;22;19912;-68
2022/06/11 03:50:19;;;;;;;;;;;;;;;-140.72;100.00;52496.38;6262541;22;20001;-68
2022/06/11 03:52:45;;;;;;;;;;;;;;;-140.72;100.00;52577.53;6262806;22;20329;-68
2022/06/11 03:55:10;;;;;;;;;;;;;;;-140.72;100.00;52520.72;6290324;22;19923;-67
2022/06/11 03:57:36;;;;;;;;;;;;;;;-140.72;100.00;52528.84;6289459;22;20323;-69
2022/06/11 04:00:04;;;;;;;;;;;;;;;-140.72;100.00;52508.56;6289095;22;19911;-68
2022/06/11 04:02:29;;;;;;;;;;;;;;;-140.72;100.00;52508.56;6290510;22;19915;-68
2022/06/11 04:04:55;;;;;;;;;;;;;;;-140.72;100.00;52536.97;6290525;22;20021;-68
2022/06/11 04:07:20;;;;;;;;;;;;;;;-140.72;100.00;52514.63;6290246;22;19915;-69
2022/06/11 04:09:45;;;;;;;;;;;;;;;-140.72;100.00;52567.41;6263656;22;19963;-68
2022/06/11 04:12:15;;;;;;;;;;;;;;;-140.72;100.00;52494.34;6287995;22;19911;-71
2022/06/11 04:14:55;;;;;;;;;;;;;;;-140.72;100.00;52526.81;6279628;22;19911;-73
2022/06/11 04:17:55;;;;;;;;;;;;;;;-140.72;100.00;52569.44;6250221;22;19911;-73
2022/06/11 04:20:20;;;;;;;;;;;;;;;-140.72;100.00;52516.66;6249665;22;19937;-73
2022/06/11 04:22:45;;;;;;;;;;;;;;;-140.72;100.00;52539.00;6249654;22;19911;-73
2022/06/11 04:25:12;;;;;;;;;;;;;;;-140.72;100.00;52506.53;6249697;22;19988;-73
2022/06/11 04:27:37;;;;;;;;;;;;;;;-140.72;100.00;52508.56;6249327;22;19911;-73
2022/06/11 04:30:03;;;;;;;;;;;;;;;-140.72;100.00;52520.72;6249818;22;19911;-73
2022/06/11 04:32:28;;;;;;;;;;;;;;;-140.72;100.00;52494.34;6249486;22;19994;-73
2022/06/11 04:34:54;;;;;;;;;;;;;;;-140.72;100.00;52510.59;6249415;22;19912;-72
2022/06/11 04:37:21;;;;;;;;;;;;;;;-140.72;100.00;52508.56;6276966;22;19911;-74
2022/06/11 04:39:48;;;;;;;;;;;;;;;-140.72;100.00;52508.56;6250108;22;20317;-74
2022/06/11 04:42:13;;;;;;;;;;;;;;;-140.72;100.00;52508.56;6249490;22;19911;-74
2022/06/11 04:44:39;;;;;;;;;;;;;;;-140.72;100.00;52514.63;6249134;22;20303;-73
2022/06/11 04:47:06;;;;;;;;;;;;;;;-140.72;100.00;52500.44;6249459;22;20001;-74
2022/06/11 04:49:31;;;;;;;;;;;;;;;-140.72;100.00;52504.50;6248434;22;20298;-74
2022/06/11 04:51:56;;;;;;;;;;;;;;;-140.72;100.00;52528.84;6249169;22;19953;-75
2022/06/11 04:54:22;;;;;;;;;;;;;;;-140.72;100.00;52488.25;6249773;22;19912;-74
2022/06/11 04:56:47;;;;;;;;;;;;;;;-140.72;100.00;52461.88;6250291;22;19915;-73
2022/06/11 04:59:12;;;;;;;;;;;;;;;-140.72;100.00;52520.72;6249302;22;19911;-73
2022/06/11 05:01:38;;;;;;;;;;;;;;;-140.72;100.00;52528.84;6249501;22;19920;-71
2022/06/11 05:04:04;;;;;;;;;;;;;;;-140.72;100.00;52502.47;6249178;22;20003;-72
2022/06/11 05:06:31;;;;;;;;;;;;;;;-140.72;100.00;52528.84;6249321;22;19958;-73
2022/06/11 05:08:57;;;;;;;;;;;;;;;-140.72;100.00;52472.03;6249389;22;19912;-73
2022/06/11 05:11:22;;;;;;;;;;;;;;;-140.72;100.00;52474.06;6248998;22;19918;-73
2022/06/11 05:13:47;;;;;;;;;;;;;;;-140.72;100.00;52522.75;6249484;22;19911;-73
2022/06/11 05:16:14;;;;;;;;;;;;;;;-140.72;100.00;52532.91;6249373;22;19918;-73
2022/06/11 05:18:40;;;;;;;;;;;;;;;-140.72;100.00;52486.22;6276455;22;19918;-74
2022/06/11 05:21:05;;;;;;;;;;;;;;;-140.72;100.00;52482.16;6249329;22;19912;-74
2022/06/11 05:23:30;;;;;;;;;;;;;;;-140.72;100.00;52520.72;6276626;22;19946;-74
2022/06/11 05:25:55;;;;;;;;;;;;;;;-140.72;100.00;52476.09;6250536;22;19912;-75
2022/06/11 05:28:23;;;;;;;;;;;;;;;-140.72;100.00;52476.09;6257659;22;19921;-73
2022/06/11 05:30:48;;;;;;;;;;;;;;;-140.72;100.00;52484.19;6261599;22;19911;-77
2022/06/11 05:33:14;;;;;;;;;;;;;;;-140.72;100.00;52492.31;6253795;22;19965;-75
2022/06/11 05:35:39;;;;;;;;;;;;;;;-140.72;100.00;52508.56;6249982;22;20313;-77
2022/06/11 05:38:07;;;;;;;;;;;;;;;-140.72;100.00;52496.38;6249568;22;19919;-79
2022/06/11 05:40:34;;;;;;;;;;;;;;;-140.72;100.00;52488.25;6249224;22;19943;-76
2022/06/11 05:42:59;;;;;;;;;;;;;;;-140.72;100.00;52494.34;6249323;22;19911;-76
2022/06/11 05:45:31;;;;;;;;;;;;;;;-140.72;100.00;52447.69;6249052;22;20329;-77
2022/06/11 05:47:57;;;;;;;;;;;;;;;-140.72;100.00;52463.91;6249874;22;19962;-75
2022/06/11 05:50:24;;;;;;;;;;;;;;;-140.72;100.00;52494.34;6250952;22;19933;-75
2022/06/11 05:52:51;;;;;;;;;;;;;;;-140.72;100.00;52488.25;6250510;22;19919;-76
2022/06/11 05:55:25;;;;;;;;;;;;;;;-140.72;100.00;52439.56;6250005;22;19957;-75
2022/06/11 05:57:51;;;;;;;;;;;;;;;-140.72;100.00;52484.19;6250969;22;19934;-74
2022/06/11 06:00:19;;;;;;;;;;;;;;;-140.72;100.00;52435.50;6251110;22;19911;-75
2022/06/11 06:02:44;;;;;;;;;;;;;;;-140.72;100.00;52419.28;6280072;22;19911;-77
2022/06/11 06:05:13;;;;;;;;;;;;;;;-140.72;100.00;52457.81;6253495;22;19964;-74
2022/06/11 06:07:38;;;;;;;;;;;;;;;-140.72;100.00;52465.94;6252283;22;19962;-73
2022/06/11 06:10:04;;;;;;;;;;;;;;;-140.72;100.00;52492.31;6260223;22;19911;-73
2022/06/11 06:12:34;;;;;;;;;;;;;;;-140.72;100.00;52421.28;6259731;22;19911;-74
2022/06/11 06:15:09;;;;;;;;;;;;;;;-140.72;100.00;52463.91;6253364;22;19998;-75
2022/06/11 06:17:34;;;;;;;;;;;;;;;-140.72;100.00;52463.91;6253179;22;20337;-77
2022/06/11 06:19:59;;;;;;;;;;;;;;;-140.72;100.00;52447.69;6278237;22;19918;-75
2022/06/11 06:22:24;;;;;;;;;;;;;;;-140.72;100.00;52459.84;6250663;22;19911;-75
2022/06/11 06:24:50;;;;;;;;;;;;;;;-140.72;100.00;52423.31;6256037;22;19915;-67
2022/06/11 06:27:15;;;;;;;;;;;;;;;-140.72;100.00;52488.25;6285370;22;19953;-68
2022/06/11 06:29:40;;;;;;;;;;;;;;;-140.72;100.00;52472.03;6286119;22;19961;-68
2022/06/11 06:32:05;;;;;;;;;;;;;;;-140.72;100.00;52474.06;6285673;22;19911;-68
2022/06/11 06:34:30;;;;;;;;;;;;;;;-140.72;100.00;52437.53;6259447;22;19937;-68
2022/06/11 06:36:56;;;;;;;;;;;;;;;-140.72;100.00;52449.72;6286839;22;19917;-67
2022/06/11 06:39:21;;;;;;;;;;;;;;;-140.72;100.00;52435.50;6286889;22;19911;-69
2022/06/11 06:41:47;;;;;;;;;;;;;;;-140.72;100.00;52429.41;6286969;22;19918;-68
2022/06/11 06:44:12;;;;;;;;;;;;;;;-140.72;100.00;52429.41;6287507;22;19915;-68
2022/06/11 06:46:37;;;;;;;;;;;;;;;-140.72;100.00;52455.78;6286032;22;19922;-69
2022/06/11 06:49:02;;;;;;;;;;;;;;;-140.72;100.00;52449.72;6285328;22;19935;-67
2022/06/11 06:51:28;;;;;;;;;;;;;;;-140.72;100.00;52437.53;6260164;22;19919;-66
2022/06/11 06:53:53;;;;;;;;;;;;;;;-140.72;100.00;52419.28;6286901;22;19963;-66
2022/06/11 06:56:18;;;;;;;;;;;;;;;-140.72;100.00;52451.72;6254539;22;19969;-66
2022/06/11 06:58:44;;;;;;;;;;;;;;;-140.72;100.00;52465.94;6284305;22;19911;-67
2022/06/11 07:01:09;;;;;;;;;;;;;;;-140.72;100.00;52449.72;6258492;22;20329;-68
2022/06/11 07:03:34;;;;;;;;;;;;;;;-140.72;100.00;52451.72;6260056;22;20313;-67
2022/06/11 07:06:03;;;;;;;;;;;;;;;-140.72;100.00;52409.13;6259001;22;19921;-66
2022/06/11 07:08:29;;;;;;;;;;;;;;;-140.72;100.00;52396.94;6286704;22;19911;-68
2022/06/11 07:10:54;;;;;;;;;;;;;;;-140.72;100.00;52425.34;6287049;22;20305;-67
2022/06/11 07:13:20;;;;;;;;;;;;;;;-140.72;100.00;52431.44;6287072;22;19922;-68
2022/06/11 07:15:47;;;;;;;;;;;;;;;-140.72;100.00;52443.63;6286919;22;19911;-67
2022/06/11 07:18:18;;;;;;;;;;;;;;;-140.72;100.00;52411.16;6286195;22;20057;-68
2022/06/11 07:20:46;;;;;;;;;;;;;;;-140.72;100.00;52425.34;6285839;22;19912;-68
2022/06/11 07:23:11;;;;;;;;;;;;;;;-140.72;100.00;52411.16;6287244;22;19981;-67
2022/06/11 07:25:38;;;;;;;;;;;;;;;-140.72;100.00;52429.41;6289710;22;19911;-67
2022/06/11 07:28:05;;;;;;;;;;;;;;;-140.72;100.00;52445.66;6291574;22;19912;-67
2022/06/11 07:30:34;;;;;;;;;;;;;;;-140.72;100.00;52409.13;6291610;22;19919;-67
2022/06/11 07:33:05;;;;;;;;;;;;;;;-140.72;100.00;52419.28;6290983;22;19919;-66
2022/06/11 07:35:30;;;;;;;;;;;;;;;-140.72;100.00;52421.28;6289756;22;19955;-68
2022/06/11 07:37:56;;;;;;;;;;;;;;;-140.72;100.00;52419.28;6260679;22;19934;-67
2022/06/11 07:40:21;;;;;;;;;;;;;;;-140.72;100.00;52433.47;6287555;22;20277;-67
2022/06/11 07:42:47;;;;;;;;;;;;;;;-140.72;100.00;52411.16;6291564;22;19922;-75
2022/06/11 07:45:12;;;;;;;;;;;;;;;-140.72;100.00;52419.28;6261849;22;19911;-72
2022/06/11 07:50:29;;;;;;;;;;;;;;;-140.72;100.00;52405.06;6289097;22;19922;-82
2022/06/11 07:52:55;;;;;;;;;;;;;;;-140.72;100.00;52459.84;6257825;22;20404;-75
2022/06/11 07:55:21;;;;;;;;;;;;;;;-140.72;100.00;52390.84;6254250;22;19915;-77
2022/06/11 07:57:46;;;;;;;;;;;;;;;-140.72;100.00;52396.94;6254820;22;19972;-76
2022/06/11 08:00:13;;;;;;;;;;;;;;;-140.72;100.00;52409.13;6256017;22;19943;-77
2022/06/11 08:02:39;;;;;;;;;;;;;;;-140.72;100.00;52348.25;6254010;22;19919;-78
2022/06/11 08:05:05;;;;;;;;;;;;;;;-140.72;100.00;52390.84;6255520;22;19986;-76
2022/06/11 08:07:30;;;;;;;;;;;;;;;-140.72;100.00;52360.44;6259275;22;19919;-82
2022/06/11 08:09:57;;;;;;;;;;;;;;;-140.72;100.00;52364.47;6265003;22;19911;-81
2022/06/11 08:12:23;;;;;;;;;;;;;;;-140.72;100.00;52317.81;6258113;22;19916;-78
2022/06/11 08:14:48;;;;;;;;;;;;;;;-140.72;100.00;52370.56;6266181;22;19911;-74
2022/06/11 08:17:14;;;;;;;;;;;;;;;-140.72;100.00;52354.34;6257059;22;19965;-75
2022/06/11 08:19:39;;;;;;;;;;;;;;;-140.72;100.00;52346.22;6264050;22;19922;-71
2022/06/11 08:22:04;;;;;;;;;;;;;;;-140.72;100.00;52340.13;6297184;22;19912;-71
2022/06/11 08:24:29;;;;;;;;;;;;;;;-140.72;100.00;52370.56;6293689;22;19913;-71
2022/06/11 08:26:55;;;;;;;;;;;;;;;-140.72;100.00;52340.13;6258909;22;19968;-73
2022/06/11 08:29:20;;;;;;;;;;;;;;;-140.72;100.00;52319.84;6285188;22;19955;-73
2022/06/11 08:31:45;;;;;;;;;;;;;;;-140.72;100.00;52307.66;6281339;22;19935;-78
2022/06/11 08:34:10;;;;;;;;;;;;;;;-140.72;100.00;52334.03;6252460;22;20244;-73
2022/06/11 08:36:35;;;;;;;;;;;;;;;-140.72;100.00;52321.88;6251022;22;20006;-74
2022/06/11 08:39:01;;;;;;;;;;;;;;;-140.72;100.00;52330.00;6278821;22;19919;-73
2022/06/11 08:41:35;;;;;;;;;;;;;;;-140.72;100.00;52378.69;6250604;22;19912;-81
2022/06/11 08:44:08;;;;;;;;;;;;;;;-140.72;100.00;52283.31;6252473;22;20306;-73
2022/06/11 08:46:34;;;;;;;;;;;;;;;-140.72;100.00;52307.66;6251881;22;19989;-73
2022/06/11 08:49:09;;;;;;;;;;;;;;;-140.72;100.00;52291.44;6291580;22;19911;-68
2022/06/11 08:51:53;;;;;;;;;;;;;;;-140.72;100.00;52356.38;6292655;22;19962;-69
2022/06/11 08:54:31;;;;;;;;;;;;;;;-140.72;100.00;52358.41;6297537;22;19911;-70
2022/06/11 08:56:57;;;;;;;;;;;;;;;-140.72;100.00;52334.03;6294662;22;19915;-70
2022/06/11 08:59:35;;;;;;;;;;;;;;;-140.72;100.00;52370.56;6269503;22;20347;-68
2022/06/11 09:02:19;;;;;;;;;;;;;;;-140.72;100.00;52295.50;6297007;22;19916;-71
2022/06/11 09:04:54;;;;;;;;;;;;;;;-140.72;100.00;52317.81;6296517;22;19911;-73
2022/06/11 09:07:20;;;;;;;;;;;;;;;-140.72;100.00;52325.94;6297374;22;20321;-72
2022/06/11 09:09:56;;;;;;;;;;;;;;;-140.72;100.00;52334.03;6295625;22;19910;-71
2022/06/11 09:12:30;;;;;;;;;;;;;;;-140.72;100.00;52285.34;6264728;22;19911;-67
2022/06/11 09:15:11;;;;;;;;;;;;;;;-140.72;100.00;52254.91;6289503;22;19933;-67
2022/06/11 09:17:45;;;;;;;;;;;;;;;-140.72;100.00;52289.41;6289556;22;19922;-68
2022/06/11 09:20:11;;;;;;;;;;;;;;;-140.72;100.00;52277.22;6290042;22;19920;-68
2022/06/11 09:22:51;;;;;;;;;;;;;;;-140.72;100.00;52198.09;6288671;22;19918;-68
2022/06/11 09:25:23;;;;;;;;;;;;;;;-140.72;100.00;52240.72;6288162;22;20475;-67
2022/06/11 09:27:48;;;;;;;;;;;;;;;-140.72;100.00;52269.13;6261100;22;19969;-67
2022/06/11 09:30:17;;;;;;;;;;;;;;;-140.72;100.00;52269.13;6288607;22;19911;-67
2022/06/11 09:33:06;;;;;;;;;;;;;;;-140.72;100.00;52281.28;6288823;22;19911;-66
2022/06/11 09:35:39;;;;;;;;;;;;;;;-140.72;100.00;52248.81;6245663;22;20356;-70
2022/06/11 09:38:07;;;;;;;;;;;;;;;-140.72;100.00;52208.25;6289849;22;20234;-68
2022/06/11 09:40:39;;;;;;;;;;;;;;;-140.72;100.00;52123.03;6262983;22;20005;-67
2022/06/11 09:43:18;;;;;;;;;;;;;;;-140.72;100.00;52092.59;6262516;22;20245;-67
2022/06/11 09:45:50;;;;;;;;;;;;;;;-140.72;100.00;52098.69;6262971;22;20240;-69
2022/06/11 09:48:34;;;;;;;;;;;;;;;-140.72;100.00;52029.69;6263183;22;19922;-66
2022/06/11 09:51:07;;;;;;;;;;;;;;;-140.72;100.00;52037.81;6290378;22;19911;-69
2022/06/11 09:53:40;;;;;;;;;;;;;;;-140.72;100.00;52072.31;6292061;22;19923;-68
2022/06/11 09:56:13;;;;;;;;;;;;;;;-140.72;100.00;52033.75;6263946;22;19922;-69
2022/06/11 09:58:38;;;;;;;;;;;;;;;-140.72;100.00;51991.16;6291169;22;19933;-67
2022/06/11 10:01:10;;;;;;;;;;;;;;;-140.72;100.00;51928.25;6290591;22;19911;-67
2022/06/11 10:03:41;;;;;;;;;;;;;;;-140.72;100.00;51958.69;6263889;22;19918;-68
2022/06/11 10:06:25;;;;;;;;;;;;;;;-140.72;100.00;52029.69;6288558;22;19938;-69
2022/06/11 10:09:03;;;;;;;;;;;;;;;-140.72;100.00;52121.00;6287673;22;19912;-67
2022/06/11 10:11:48;;;;;;;;;;;;;;;-140.72;100.00;52007.38;6289152;22;19911;-68
2022/06/11 10:14:30;;;;;;;;;;;;;;;-140.72;100.00;52084.47;6288353;22;19912;-67
2022/06/11 10:17:12;;;;;;;;;;;;;;;-140.72;100.00;52179.84;6260073;22;19919;-66
2022/06/11 10:19:40;;;;;;;;;;;;;;;-140.72;100.00;52234.63;6261389;22;19911;-66
2022/06/11 10:22:05;;;;;;;;;;;;;;;-140.72;100.00;52187.97;6287731;22;19915;-66
2022/06/11 10:24:34;;;;;;;;;;;;;;;-140.72;100.00;52094.63;6289095;22;19918;-67
2022/06/11 10:27:08;;;;;;;;;;;;;;;-140.72;100.00;52108.81;6263287;22;19912;-67
2022/06/11 10:29:40;;;;;;;;;;;;;;;-140.72;100.00;52013.47;6262155;22;19959;-67
2022/06/11 10:32:06;;;;;;;;;;;;;;;-140.72;100.00;51999.25;6261185;22;19919;-70
2022/06/11 10:34:31;;;;;;;;;;;;;;;-140.72;100.00;51914.03;6262075;22;19912;-67
2022/06/11 10:37:06;;;;;;;;;;;;;;;-140.72;100.00;51978.97;6290496;22;19912;-65
2022/06/11 10:39:40;;;;;;;;;;;;;;;-140.72;100.00;51930.28;6261537;22;19926;-67
2022/06/11 10:42:11;;;;;;;;;;;;;;;-140.72;100.00;51914.03;6288050;22;19911;-69
2022/06/11 10:44:36;;;;;;;;;;;;;;;-140.72;100.00;51869.41;6289733;22;19982;-68
2022/06/11 10:47:12;;;;;;;;;;;;;;;-140.72;100.00;51924.19;6289201;22;19926;-65
2022/06/11 10:49:38;;;;;;;;;;;;;;;-140.72;100.00;51924.19;6289036;22;20301;-66
2022/06/11 10:52:08;;;;;;;;;;;;;;;-140.72;100.00;52108.81;6289722;22;19919;-66
2022/06/11 10:54:34;;;;;;;;;;;;;;;-140.72;100.00;52129.13;6289136;22;19917;-68
2022/06/11 10:57:24;;;;;;;;;;;;;;;-140.72;100.00;52129.13;6290184;22;19915;-67
2022/06/11 10:59:52;;;;;;;;;;;;;;;-140.72;100.00;52080.41;6290024;22;20353;-66
2022/06/11 11:02:23;;;;;;;;;;;;;;;-140.72;100.00;52072.31;6263486;22;19911;-69
2022/06/11 11:05:00;;;;;;;;;;;;;;;-140.72;100.00;52049.97;6263582;22;19911;-68
2022/06/11 11:07:26;;;;;;;;;;;;;;;-140.72;100.00;51968.81;6290500;22;19911;-66
2022/06/11 11:09:58;;;;;;;;;;;;;;;-140.72;100.00;51964.78;6290107;22;19923;-66
2022/06/11 11:12:33;;;;;;;;;;;;;;;-140.72;100.00;51999.25;6262369;22;19935;-67
2022/06/11 11:15:11;;;;;;;;;;;;;;;-140.72;100.00;52033.75;6288843;22;19918;-67
2022/06/11 11:17:44;;;;;;;;;;;;;;;-140.72;100.00;51954.63;6288547;22;19911;-66
2022/06/11 11:20:30;;;;;;;;;;;;;;;-140.72;100.00;52001.28;6288471;22;19911;-66
2022/06/11 11:22:57;;;;;;;;;;;;;;;-140.72;100.00;51958.69;6261997;22;19912;-66
2022/06/11 11:25:26;;;;;;;;;;;;;;;-140.72;100.00;51887.66;6289898;22;19994;-66
2022/06/11 11:27:52;;;;;;;;;;;;;;;-140.72;100.00;52021.56;6290113;22;19937;-66
2022/06/11 11:30:17;;;;;;;;;;;;;;;-140.72;100.00;51960.72;6290089;22;19912;-64
2022/06/11 11:32:44;;;;;;;;;;;;;;;-140.72;100.00;51993.19;6288786;22;19911;-68
2022/06/11 11:35:24;;;;;;;;;;;;;;;-140.72;100.00;51940.41;6289291;22;19912;-67
2022/06/11 11:38:00;;;;;;;;;;;;;;;-140.72;100.00;51942.44;6291822;22;19911;-66
2022/06/11 11:40:28;;;;;;;;;;;;;;;-140.72;100.00;51881.59;6264607;22;19911;-67
2022/06/11 11:43:01;;;;;;;;;;;;;;;-140.72;100.00;51999.25;6260035;22;19912;-68
2022/06/11 11:45:40;;;;;;;;;;;;;;;-140.72;100.00;51940.41;6286983;22;19915;-65
2022/06/11 11:48:06;;;;;;;;;;;;;;;-140.72;100.00;51916.06;6287403;22;19916;-65
2022/06/11 11:50:34;;;;;;;;;;;;;;;-140.72;100.00;51956.66;6287568;22;19912;-67
2022/06/11 11:53:02;;;;;;;;;;;;;;;-140.72;100.00;52019.56;6287216;22;19911;-69
2022/06/11 11:55:32;;;;;;;;;;;;;;;-140.72;100.00;51934.34;6287201;22;19919;-66
2022/06/11 11:58:00;;;;;;;;;;;;;;;-140.72;100.00;51989.13;6287712;22;19915;-68
2022/06/11 12:00:28;;;;;;;;;;;;;;;-140.72;100.00;51995.19;6288150;22;19911;-67
2022/06/11 12:03:05;;;;;;;;;;;;;;;-140.72;100.00;51976.94;6286225;22;20115;-68
2022/06/11 12:05:38;;;;;;;;;;;;;;;-140.72;100.00;52070.28;6287783;22;19915;-67
2022/06/11 12:08:11;;;;;;;;;;;;;;;-140.72;100.00;52003.31;6288436;22;19911;-67
2022/06/11 12:10:38;;;;;;;;;;;;;;;-140.72;100.00;52056.06;6287709;22;19912;-67
2022/06/11 12:13:18;;;;;;;;;;;;;;;-140.72;100.00;52039.84;6287169;22;19911;-67
2022/06/11 12:15:49;;;;;;;;;;;;;;;-140.72;100.00;51993.19;6260457;22;19911;-67
2022/06/11 12:18:17;;;;;;;;;;;;;;;-140.72;100.00;52078.38;6287893;22;19931;-67
2022/06/11 12:20:46;;;;;;;;;;;;;;;-140.72;100.00;51976.94;6287656;22;19931;-66
2022/06/11 12:23:17;;;;;;;;;;;;;;;-140.72;100.00;52078.38;6287851;22;19994;-67
2022/06/11 12:25:58;;;;;;;;;;;;;;;-140.72;100.00;52149.41;6288047;22;19912;-69
2022/06/11 12:28:32;;;;;;;;;;;;;;;-140.72;100.00;52110.84;6288987;22;20256;-66
2022/06/11 12:30:57;;;;;;;;;;;;;;;-140.72;100.00;52035.78;6288425;22;19965;-67